M/T Arcadia — SY7849 — position and weather

sailwx.info

Track history (hours):
 
Tides and Currents Weather Stations Pressure Air Temp Water Temp Dewpoint Dewpoint Depression Visibility Wind Speed Wind Dir Waves Ship Positions

M/T Arcadia

Last reported at 2014-Dec-21 10:04 UTC. Time now 2014-Dec-23 01:31 UTC.
Position N 37°49' E 023°12'.

Length 76 m; draft 3.9 m.

Type: Ship. MMSI: 240560000.

Date/timePositionNaut miles runAvg speedWind from/ knotsBaromVisibWave heightAir tempDewpointWater temp
2014-Dec-21 10:04N 37°49' E 023°12'8 9.1
2014-Dec-21 09:12N 37°43' E 023°17'6 8.7
2014-Dec-21 08:33N 37°39' E 023°23'10 9.6
2014-Dec-21 07:33N 37°33' E 023°32'48 9.4
2014-Dec-21 02:28N 36°46' E 023°46'9 9.9
2014-Dec-21 01:30N 36°37' E 023°48'1 0.0
2014-Dec-19 22:27N 36°37' E 023°49'8 8.8
2014-Dec-19 21:32N 36°45' E 023°47'47 8.8
2014-Dec-19 16:13N 37°31' E 023°33'7 8.7
2014-Dec-19 15:23N 37°36' E 023°28'9 8.6
2014-Dec-19 14:19N 37°41' E 023°18'16 8.6
2014-Dec-19 12:27N 37°54' E 023°06'0 0.0
2014-Dec-17 09:33N 37°55' E 023°06'0 0.0
2014-Dec-16 08:33N 37°55' E 023°06'9 9.1
2014-Dec-16 07:33N 37°47' E 023°13'9 9.3
2014-Dec-16 06:33N 37°40' E 023°20'11 9.6
2014-Dec-16 05:26N 37°35' E 023°32'42 9.6
2014-Dec-16 01:03N 36°53' E 023°43'15 9.7
2014-Dec-15 23:32N 36°39' E 023°45'13 9.9
2014-Dec-15 22:16N 36°27' E 023°48'2910.2
2014-Dec-15 19:27N 35°58' E 023°55'86 1.8
2014-Dec-13 19:10N 37°21' E 023°24'13 7.1
2014-Dec-13 17:17N 37°33' E 023°31'6 8.9
2014-Dec-13 16:34N 37°38' E 023°26'8 7.8
2014-Dec-13 15:33N 37°42' E 023°17'9 8.7
2014-Dec-13 14:33N 37°49' E 023°12'8 5.8
2014-Dec-13 13:15N 37°55' E 023°05'1 0.0
2014-Dec-12 20:23N 37°55' E 023°04'0 0.0
2014-Dec-12 18:17N 37°54' E 023°04'0 0.0
2014-Dec-12 16:11N 37°54' E 023°04'0 0.0
2014-Dec-12 14:29N 37°54' E 023°04'0 0.0
2014-Dec-12 07:05N 37°54' E 023°04'0 0.0
2014-Dec-12 04:08N 37°54' E 023°04'0 0.0
2014-Dec-12 02:29N 37°54' E 023°04'0 0.0
2014-Dec-12 01:32N 37°55' E 023°04'0 0.0
2014-Dec-12 00:23N 37°54' E 023°04'0 0.0
2014-Dec-11 18:23N 37°54' E 023°04'0 0.0
2014-Dec-11 17:23N 37°55' E 023°04'0 0.0
2014-Dec-11 15:32N 37°55' E 023°04'0 0.0
2014-Dec-11 14:23N 37°55' E 023°04'0 0.0
2014-Dec-11 12:23N 37°55' E 023°04'  
Track history (hours):
 
Tides and Currents Weather Stations Pressure Air Temp Water Temp Dewpoint Dewpoint Depression Visibility Wind Speed Wind Dir Waves Ship Positions

M/T Arcadia

Last reported at 2014-Dec-21 10:04 UTC. Time now 2014-Dec-23 01:31 UTC.
Position N 37°49' E 023°12'.

Length 76 m; draft 3.9 m.

Type: Ship. MMSI: 240560000.

Date/timePositionNaut miles runAvg speedWind from/ knotsBaromVisibWave heightAir tempDewpointWater temp
2014-Dec-21 10:04N 37°49' E 023°12'8 9.1
2014-Dec-21 09:12N 37°43' E 023°17'6 8.7
2014-Dec-21 08:33N 37°39' E 023°23'10 9.6
2014-Dec-21 07:33N 37°33' E 023°32'48 9.4
2014-Dec-21 02:28N 36°46' E 023°46'9 9.9
2014-Dec-21 01:30N 36°37' E 023°48'1 0.0
2014-Dec-19 22:27N 36°37' E 023°49'8 8.8
2014-Dec-19 21:32N 36°45' E 023°47'47 8.8
2014-Dec-19 16:13N 37°31' E 023°33'7 8.7
2014-Dec-19 15:23N 37°36' E 023°28'9 8.6
2014-Dec-19 14:19N 37°41' E 023°18'16 8.6
2014-Dec-19 12:27N 37°54' E 023°06'0 0.0
2014-Dec-17 09:33N 37°55' E 023°06'0 0.0
2014-Dec-16 08:33N 37°55' E 023°06'9 9.1
2014-Dec-16 07:33N 37°47' E 023°13'9 9.3
2014-Dec-16 06:33N 37°40' E 023°20'11 9.6
2014-Dec-16 05:26N 37°35' E 023°32'42 9.6
2014-Dec-16 01:03N 36°53' E 023°43'15 9.7
2014-Dec-15 23:32N 36°39' E 023°45'13 9.9
2014-Dec-15 22:16N 36°27' E 023°48'2910.2
2014-Dec-15 19:27N 35°58' E 023°55'86 1.8
2014-Dec-13 19:10N 37°21' E 023°24'13 7.1
2014-Dec-13 17:17N 37°33' E 023°31'6 8.9
2014-Dec-13 16:34N 37°38' E 023°26'8 7.8
2014-Dec-13 15:33N 37°42' E 023°17'9 8.7
2014-Dec-13 14:33N 37°49' E 023°12'8 5.8
2014-Dec-13 13:15N 37°55' E 023°05'1 0.0
2014-Dec-12 20:23N 37°55' E 023°04'0 0.0
2014-Dec-12 18:17N 37°54' E 023°04'0 0.0
2014-Dec-12 16:11N 37°54' E 023°04'0 0.0
2014-Dec-12 14:29N 37°54' E 023°04'0 0.0
2014-Dec-12 07:05N 37°54' E 023°04'0 0.0
2014-Dec-12 04:08N 37°54' E 023°04'0 0.0
2014-Dec-12 02:29N 37°54' E 023°04'0 0.0
2014-Dec-12 01:32N 37°55' E 023°04'0 0.0
2014-Dec-12 00:23N 37°54' E 023°04'0 0.0
2014-Dec-11 18:23N 37°54' E 023°04'0 0.0
2014-Dec-11 17:23N 37°55' E 023°04'0 0.0
2014-Dec-11 15:32N 37°55' E 023°04'0 0.0
2014-Dec-11 14:23N 37°55' E 023°04'0 0.0
2014-Dec-11 12:23N 37°55' E 023°04'  

Dump ship's entire track history